createdAt,value
2019-04-20T00:00:54.991Z,5.4
2019-04-20T00:02:56.562Z,5.2
2019-04-20T00:04:51.490Z,5.0
2019-04-20T00:06:54.306Z,5.2
2019-04-20T00:09:04.616Z,5.2
2019-04-20T00:11:03.933Z,5.3
2019-04-20T00:13:11.333Z,5.6
2019-04-20T00:14:50.106Z,5.1
2019-04-20T00:16:50.694Z,5.4
2019-04-20T00:18:58.316Z,5.4
2019-04-20T00:21:05.442Z,5.4
2019-04-20T00:22:53.934Z,5.2
2019-04-20T00:25:03.966Z,5.2
2019-04-20T00:27:19.139Z,5.7
2019-04-20T00:29:17.213Z,5.7
2019-04-20T00:33:09.271Z,5.5
2019-04-20T00:34:52.292Z,5.4
2019-04-20T00:36:50.235Z,5.3
2019-04-20T00:38:59.462Z,5.3
2019-04-20T00:41:04.757Z,5.7
2019-04-20T00:42:55.500Z,5.8
2019-04-20T00:45:05.534Z,5.5
2019-04-20T00:47:11.913Z,5.9
2019-04-20T00:49:10.731Z,5.9
2019-04-20T00:53:09.976Z,5.3
2019-04-20T00:54:49.622Z,5.3
2019-04-20T00:56:49.999Z,5.9
2019-04-20T00:59:07.945Z,5.9
2019-04-20T01:01:12.623Z,5.4
2019-04-20T01:03:13.234Z,6.0
2019-04-20T01:05:17.776Z,6.0
2019-04-20T01:07:12.191Z,5.7
2019-04-20T01:08:50.977Z,5.7
2019-04-20T01:10:57.414Z,5.7
2019-04-20T01:13:04.144Z,6.0
2019-04-20T01:15:00.979Z,5.8
2019-04-20T01:17:07.116Z,6.2
2019-04-20T01:18:50.132Z,6.2
2019-04-20T01:20:51.502Z,5.9
2019-04-20T01:23:04.492Z,5.6
2019-04-20T01:24:53.274Z,5.6
2019-04-20T01:27:00.070Z,5.6
2019-04-20T01:29:11.957Z,5.7
2019-04-20T01:31:12.473Z,5.7
2019-04-20T01:33:12.322Z,6.1
2019-04-20T01:35:07.008Z,5.8
2019-04-20T01:37:09.161Z,5.8
2019-04-20T01:39:13.457Z,6.1
2019-04-20T01:40:50.692Z,5.9
2019-04-20T01:42:51.316Z,5.7
2019-04-20T01:44:55.308Z,5.7
2019-04-20T01:46:58.618Z,5.9
2019-04-20T01:48:50.750Z,6.0
2019-04-20T01:51:07.057Z,6.3
2019-04-20T01:53:09.867Z,6.0
2019-04-20T01:55:15.571Z,6.4
2019-04-20T01:57:06.870Z,6.4
2019-04-20T01:59:15.655Z,6.1
2019-04-20T02:00:55.633Z,6.1
2019-04-20T02:03:01.331Z,6.2
2019-04-20T02:04:55.097Z,6.2
2019-04-20T02:06:59.649Z,5.9
2019-04-20T02:09:04.299Z,6.0
2019-04-20T02:10:58.626Z,6.2
2019-04-20T02:13:00.105Z,6.2
2019-04-20T02:15:00.430Z,6.4
2019-04-20T02:17:07.311Z,6.4
2019-04-20T02:19:13.004Z,6.5
2019-04-20T02:23:10.403Z,6.1
2019-04-20T02:24:51.143Z,6.1
2019-04-20T02:26:52.076Z,6.2
2019-04-20T02:29:12.043Z,6.6
2019-04-20T02:31:32.149Z,6.6
2019-04-20T02:33:41.794Z,6.4
2019-04-20T02:35:23.728Z,6.4
2019-04-20T02:39:37.310Z,6.5
2019-04-20T02:41:34.740Z,6.7
2019-04-20T02:43:37.337Z,6.7
2019-04-20T02:45:32.457Z,6.1
2019-04-20T02:47:29.943Z,6.5
2019-04-20T02:49:35.219Z,6.4
2019-04-20T02:53:29.522Z,6.7
2019-04-20T02:55:29.648Z,6.7
2019-04-20T02:57:30.301Z,7.0
2019-04-20T02:59:53.132Z,6.5
2019-04-20T03:01:19.956Z,7.0
2019-04-20T03:03:13.332Z,7.0
2019-04-20T03:05:12.064Z,6.7
2019-04-20T03:07:14.755Z,6.3
2019-04-20T03:09:14.948Z,6.3
2019-04-20T03:11:14.487Z,7.0
2019-04-20T03:13:18.120Z,7.0
2019-04-20T03:15:21.661Z,6.4
2019-04-20T03:17:20.111Z,6.9
2019-04-20T03:19:11.645Z,6.6
2019-04-20T03:21:24.419Z,7.0
2019-04-20T03:23:29.566Z,7.0
2019-04-20T03:25:22.085Z,7.1
2019-04-20T03:29:12.618Z,7.0
2019-04-20T03:31:52.114Z,7.0
2019-04-20T03:33:22.862Z,7.9
2019-04-20T03:35:18.143Z,7.5
2019-04-20T03:37:26.449Z,7.3
2019-04-20T03:39:17.522Z,7.7
2019-04-20T03:41:08.048Z,7.7
2019-04-20T03:42:50.822Z,7.1
2019-04-20T03:45:03.094Z,7.1
2019-04-20T03:47:02.727Z,7.4
2019-04-20T03:49:18.238Z,7.6
2019-04-20T03:51:23.427Z,7.6
2019-04-20T03:57:20.823Z,7.8
2019-04-20T03:59:11.188Z,7.8
2019-04-20T04:01:16.113Z,7.7
2019-04-20T04:03:28.853Z,7.1
2019-04-20T04:05:17.461Z,8.0
2019-04-20T04:06:59.470Z,8.0
2019-04-20T04:09:12.075Z,7.7
2019-04-20T04:12:53.114Z,7.9
2019-04-20T04:14:51.198Z,8.5
2019-04-20T04:16:59.148Z,8.2
2019-04-20T04:19:09.847Z,8.2
2019-04-20T04:20:59.963Z,8.2
2019-04-20T04:23:14.778Z,8.0
2019-04-20T04:25:12.022Z,7.6
2019-04-20T04:27:08.717Z,8.2
2019-04-20T04:29:19.003Z,8.2
2019-04-20T04:31:15.560Z,8.2
2019-04-20T04:33:39.549Z,8.5
2019-04-20T04:35:13.645Z,8.1
2019-04-20T04:37:16.135Z,8.3
2019-04-20T04:39:20.843Z,8.1
2019-04-20T04:41:18.013Z,8.1
2019-04-20T04:43:19.601Z,8.0
2019-04-20T04:45:04.562Z,8.6
2019-04-20T04:47:01.466Z,8.1
2019-04-20T04:48:59.816Z,8.5
2019-04-20T04:51:03.090Z,8.5
2019-04-20T04:53:06.284Z,7.9
2019-04-20T04:55:10.720Z,7.9
2019-04-20T04:56:50.541Z,7.9
2019-04-20T05:00:51.585Z,7.9
2019-04-20T05:03:00.845Z,8.9
2019-04-20T05:05:17.064Z,8.3
2019-04-20T05:07:11.104Z,8.3
2019-04-20T05:09:02.275Z,8.2
2019-04-20T05:10:50.119Z,8.5
2019-04-20T05:12:53.145Z,8.6
2019-04-20T05:15:07.482Z,8.7
2019-04-20T05:17:14.519Z,8.7
2019-04-20T05:19:13.126Z,8.4
2019-04-20T05:21:14.249Z,8.5
2019-04-20T05:23:12.284Z,8.5
2019-04-20T05:25:17.055Z,8.3
2019-04-20T05:27:18.883Z,9.0
2019-04-20T05:29:08.349Z,8.7
2019-04-20T05:30:59.756Z,8.7
2019-04-20T05:33:04.535Z,8.7
2019-04-20T05:35:14.484Z,8.7
2019-04-20T05:37:27.043Z,8.6
2019-04-20T05:39:21.161Z,8.6
2019-04-20T05:41:16.464Z,8.8
2019-04-20T05:45:16.148Z,8.8
2019-04-20T05:47:21.256Z,8.8
2019-04-20T05:49:21.795Z,8.6
2019-04-20T05:51:23.827Z,8.9
2019-04-20T05:53:19.075Z,8.9
2019-04-20T05:55:14.240Z,9.2
2019-04-20T05:57:24.875Z,9.2
2019-04-20T05:59:14.806Z,8.7
2019-04-20T06:01:19.921Z,8.8
2019-04-20T06:03:20.141Z,8.9
2019-04-20T06:05:21.794Z,8.9
2019-04-20T06:09:22.505Z,8.5
2019-04-20T06:15:11.558Z,8.7
2019-04-20T06:17:20.776Z,8.7
2019-04-20T06:19:25.687Z,8.3
2019-04-20T06:21:24.815Z,7.8
2019-04-20T06:23:23.503Z,7.8
2019-04-20T06:25:38.744Z,7.8
2019-04-20T06:27:20.921Z,8.1
2019-04-20T06:29:13.596Z,8.3
2019-04-20T06:31:23.728Z,8.1
2019-04-20T06:33:30.453Z,7.8
2019-04-20T06:35:30.146Z,7.8
2019-04-20T06:37:15.716Z,7.9
2019-04-20T06:41:20.917Z,7.5
2019-04-20T06:43:22.498Z,7.1
2019-04-20T06:45:26.589Z,7.1
2019-04-20T06:47:23.946Z,7.4
2019-04-20T06:49:22.201Z,6.9
2019-04-20T06:51:21.995Z,7.4
2019-04-20T06:53:23.615Z,6.6
2019-04-20T06:55:13.701Z,6.6
2019-04-20T06:57:17.004Z,6.9
2019-04-20T06:59:25.623Z,6.7
2019-04-20T07:01:16.933Z,6.4
2019-04-20T07:03:35.694Z,6.5
2019-04-20T07:07:13.972Z,6.5
2019-04-20T07:09:21.480Z,6.7
2019-04-20T07:11:23.094Z,6.7
2019-04-20T07:13:11.395Z,6.7
2019-04-20T07:15:18.675Z,6.4
2019-04-20T07:17:32.618Z,6.9
2019-04-20T07:19:12.698Z,6.7
2019-04-20T07:21:37.164Z,6.6
2019-04-20T07:25:13.709Z,6.9
2019-04-20T07:27:11.962Z,6.5
2019-04-20T07:29:25.421Z,6.5
2019-04-20T07:31:17.992Z,6.9
2019-04-20T07:33:21.343Z,6.9
2019-04-20T07:35:19.481Z,6.6
2019-04-20T07:37:46.293Z,6.5
2019-04-20T07:43:19.546Z,5.9
2019-04-20T07:45:14.657Z,6.0
2019-04-20T07:49:17.710Z,5.6
2019-04-20T07:51:06.293Z,5.6
2019-04-20T07:53:16.584Z,5.5
2019-04-20T07:55:32.676Z,5.5
2019-04-20T07:57:19.115Z,5.5
2019-04-20T07:59:09.503Z,5.6
2019-04-20T08:01:14.060Z,5.6
2019-04-20T08:03:16.170Z,5.5
2019-04-20T08:05:14.814Z,5.6
2019-04-20T08:07:00.309Z,5.7
2019-04-20T08:09:14.373Z,5.7
2019-04-20T08:11:13.620Z,5.7
2019-04-20T08:13:22.948Z,5.6
2019-04-20T08:15:29.579Z,5.6
2019-04-20T08:17:19.928Z,5.3
2019-04-20T08:19:16.013Z,5.2
2019-04-20T08:21:22.637Z,5.2
2019-04-20T08:23:16.906Z,5.3
2019-04-20T08:25:08.051Z,5.8
2019-04-20T08:27:00.991Z,5.8
2019-04-20T08:29:02.262Z,5.2
2019-04-20T08:31:13.753Z,5.2
2019-04-20T08:33:13.056Z,5.3
2019-04-20T08:35:22.095Z,5.4
2019-04-20T08:37:10.885Z,5.6
2019-04-20T08:39:28.000Z,5.2
2019-04-20T08:41:12.687Z,5.2
2019-04-20T08:43:37.568Z,6.6
2019-04-20T08:45:15.989Z,5.6
2019-04-20T08:47:27.074Z,6.2
2019-04-20T08:49:15.679Z,6.2
2019-04-20T08:51:18.970Z,5.5
2019-04-20T08:53:20.074Z,5.7
2019-04-20T08:55:14.384Z,5.3
2019-04-20T08:57:00.281Z,5.6
2019-04-20T08:58:50.876Z,5.6
2019-04-20T09:01:01.997Z,6.0
2019-04-20T09:03:07.983Z,5.6
2019-04-20T09:05:03.088Z,5.7
2019-04-20T09:07:08.222Z,5.8
2019-04-20T09:09:31.637Z,5.8
2019-04-20T09:13:11.325Z,6.2
2019-04-20T09:14:50.923Z,6.1
2019-04-20T09:17:01.684Z,6.1
2019-04-20T09:19:05.835Z,6.0
2019-04-20T09:21:03.207Z,5.9
2019-04-20T09:23:16.471Z,5.8
2019-04-20T09:27:14.055Z,6.2
2019-04-20T09:29:11.695Z,6.0
2019-04-20T09:31:15.084Z,6.0
2019-04-20T09:35:19.119Z,6.1
2019-04-20T09:37:18.751Z,6.1
2019-04-20T09:39:11.135Z,5.8
2019-04-20T09:41:14.668Z,6.4
2019-04-20T09:42:49.806Z,6.0
2019-04-20T09:44:57.997Z,5.7
2019-04-20T09:46:59.454Z,5.7
2019-04-20T09:48:59.746Z,6.1
2019-04-20T09:51:19.945Z,6.6
2019-04-20T09:53:08.617Z,6.6
2019-04-20T09:55:14.198Z,6.2
2019-04-20T09:57:18.990Z,6.2
2019-04-20T09:59:15.999Z,6.2
2019-04-20T10:01:13.033Z,6.5
2019-04-20T10:02:50.661Z,6.5
2019-04-20T10:04:51.583Z,6.1
2019-04-20T10:06:49.829Z,6.1
2019-04-20T10:08:58.208Z,6.2
2019-04-20T10:10:52.854Z,6.5
2019-04-20T10:12:50.226Z,6.5
2019-04-20T10:14:51.072Z,6.4
2019-04-20T10:16:51.919Z,6.4
2019-04-20T10:18:55.234Z,6.2
2019-04-20T10:20:49.905Z,6.3
2019-04-20T10:22:50.951Z,6.3
2019-04-20T10:24:52.527Z,6.6
2019-04-20T10:26:50.659Z,6.6
2019-04-20T10:28:49.908Z,6.7
2019-04-20T10:30:50.562Z,6.7
2019-04-20T10:32:54.032Z,6.2
2019-04-20T10:34:50.767Z,6.2
2019-04-20T10:36:51.524Z,6.2
2019-04-20T10:38:50.810Z,5.9
2019-04-20T10:41:05.862Z,7.1
2019-04-20T10:42:50.275Z,7.1
2019-04-20T10:44:56.789Z,6.3
2019-04-20T10:46:49.534Z,6.3
2019-04-20T10:48:54.821Z,6.4
2019-04-20T10:50:50.147Z,6.2
2019-04-20T10:52:50.226Z,6.2
2019-04-20T10:54:50.524Z,6.7
2019-04-20T10:56:49.927Z,6.3
2019-04-20T10:58:49.969Z,6.1
2019-04-20T11:00:53.162Z,6.5
2019-04-20T11:02:52.476Z,6.0
2019-04-20T11:04:50.767Z,6.0
2019-04-20T11:06:50.499Z,6.6
2019-04-20T11:08:50.865Z,6.3
2019-04-20T11:11:08.793Z,6.3
2019-04-20T11:12:50.694Z,6.0
2019-04-20T11:14:50.358Z,6.3
2019-04-20T11:16:50.964Z,6.1
2019-04-20T11:18:51.132Z,5.9
2019-04-20T11:20:51.244Z,6.3
2019-04-20T11:22:50.698Z,6.3
2019-04-20T11:24:50.365Z,5.9
2019-04-20T11:26:49.957Z,6.6
2019-04-20T11:28:50.507Z,6.4
2019-04-20T11:30:50.257Z,5.9
2019-04-20T11:32:51.800Z,5.9
2019-04-20T11:34:51.375Z,6.0
2019-04-20T11:36:50.983Z,6.2
2019-04-20T11:38:51.252Z,5.6
2019-04-20T11:41:10.135Z,5.5
2019-04-20T11:42:50.112Z,5.5
2019-04-20T11:44:50.933Z,5.9
2019-04-20T11:46:50.457Z,5.6
2019-04-20T11:48:49.716Z,5.6
2019-04-20T11:50:49.792Z,5.6
2019-04-20T11:52:51.607Z,5.6
2019-04-20T11:54:50.639Z,5.4
2019-04-20T11:56:51.298Z,5.8
2019-04-20T11:58:51.229Z,5.7
2019-04-20T12:01:06.722Z,5.7
2019-04-20T12:02:56.853Z,5.5
2019-04-20T12:05:12.597Z,5.8
2019-04-20T12:06:50.792Z,5.7
2019-04-20T12:08:50.083Z,6.2
2019-04-20T12:11:00.164Z,6.2
2019-04-20T12:12:55.482Z,5.5
2019-04-20T12:14:50.667Z,5.2
2019-04-20T12:16:50.131Z,5.6
2019-04-20T12:18:50.547Z,5.8
2019-04-20T12:20:50.599Z,5.8
2019-04-20T12:22:50.590Z,5.5
2019-04-20T12:24:50.126Z,5.4
2019-04-20T12:26:51.188Z,5.4
2019-04-20T12:28:51.699Z,5.9
2019-04-20T12:30:51.367Z,5.9
2019-04-20T12:32:59.734Z,5.9
2019-04-20T12:34:49.938Z,5.7
2019-04-20T12:36:51.314Z,5.6
2019-04-20T12:38:51.138Z,5.6
2019-04-20T12:40:50.488Z,5.6
2019-04-20T12:42:51.032Z,5.5
2019-04-20T12:44:50.208Z,5.1
2019-04-20T12:46:51.698Z,5.2
2019-04-20T12:48:51.600Z,5.2
2019-04-20T12:50:50.070Z,5.8
2019-04-20T12:52:50.483Z,5.6
2019-04-20T12:54:50.596Z,5.4
2019-04-20T12:56:50.823Z,5.4
2019-04-20T12:58:51.522Z,5.5
2019-04-20T13:00:50.458Z,5.2
2019-04-20T13:02:51.620Z,5.1
2019-04-20T13:04:51.305Z,5.0
2019-04-20T13:06:55.256Z,5.0
2019-04-20T13:08:57.270Z,5.6
2019-04-20T13:10:50.845Z,5.7
2019-04-20T13:12:50.386Z,5.2
2019-04-20T13:14:50.814Z,5.2
2019-04-20T13:16:52.310Z,5.2
2019-04-20T13:18:51.119Z,5.2
2019-04-20T13:20:53.362Z,5.0
2019-04-20T13:22:51.042Z,4.8
2019-04-20T13:24:49.738Z,5.1
2019-04-20T13:26:51.108Z,5.1
2019-04-20T13:28:51.056Z,5.3
2019-04-20T13:30:50.249Z,5.0
2019-04-20T13:32:49.994Z,5.0
2019-04-20T13:34:50.234Z,5.2
2019-04-20T13:36:50.609Z,5.2
2019-04-20T13:38:50.307Z,4.7
2019-04-20T13:40:51.582Z,4.7
2019-04-20T13:42:50.011Z,5.1
2019-04-20T13:44:50.959Z,4.9
2019-04-20T13:46:51.149Z,4.9
2019-04-20T13:48:51.215Z,5.0
2019-04-20T13:50:49.972Z,5.0
2019-04-20T13:52:51.105Z,5.2
2019-04-20T13:54:50.517Z,5.2
2019-04-20T13:56:50.239Z,5.2
2019-04-20T13:58:50.245Z,5.2
2019-04-20T14:00:53.703Z,5.1
2019-04-20T14:02:51.120Z,5.0
2019-04-20T14:04:50.940Z,5.4
2019-04-20T14:06:51.280Z,5.4
2019-04-20T14:08:49.600Z,5.2
2019-04-20T14:10:49.716Z,5.2
2019-04-20T14:13:05.013Z,5.2
2019-04-20T14:14:51.098Z,5.1
2019-04-20T14:16:50.625Z,5.1
2019-04-20T14:18:51.209Z,5.2
2019-04-20T14:20:50.434Z,5.5
2019-04-20T14:22:52.565Z,5.0
2019-04-20T14:24:51.171Z,4.9
2019-04-20T14:26:50.939Z,4.9
2019-04-20T14:28:49.654Z,4.8
2019-04-20T14:30:51.601Z,4.5
2019-04-20T14:32:50.641Z,4.6
2019-04-20T14:34:51.364Z,4.6
2019-04-20T14:36:51.041Z,4.8
2019-04-20T14:38:50.086Z,4.6
2019-04-20T14:40:50.496Z,4.6
2019-04-20T14:42:54.776Z,4.6
2019-04-20T14:44:50.237Z,4.2
2019-04-20T14:46:50.108Z,4.3
2019-04-20T14:48:49.753Z,4.3
2019-04-20T14:50:49.949Z,4.4
2019-04-20T14:52:49.880Z,4.6
2019-04-20T14:54:49.919Z,4.6
2019-04-20T14:56:51.786Z,4.2
2019-04-20T14:58:51.570Z,4.7
2019-04-20T15:00:53.602Z,4.6
2019-04-20T15:02:50.118Z,4.6
2019-04-20T15:04:50.689Z,4.5
2019-04-20T15:06:50.719Z,4.3
2019-04-20T15:08:50.581Z,4.3
2019-04-20T15:10:52.194Z,5.4
2019-04-20T15:13:01.073Z,5.4
2019-04-20T15:14:50.536Z,4.3
2019-04-20T15:16:51.003Z,4.5
2019-04-20T15:18:53.035Z,4.3
2019-04-20T15:20:51.372Z,4.2
2019-04-20T15:22:50.011Z,4.2
2019-04-20T15:24:49.706Z,4.1
2019-04-20T15:26:49.758Z,4.0
2019-04-20T15:28:50.594Z,4.0
2019-04-20T15:30:50.454Z,4.0
2019-04-20T15:32:52.574Z,4.0
2019-04-20T15:34:51.038Z,4.4
2019-04-20T15:36:51.886Z,4.2
2019-04-20T15:38:51.459Z,4.4
2019-04-20T15:40:51.168Z,3.9
2019-04-20T15:43:06.392Z,3.9
2019-04-20T15:44:49.678Z,4.1
2019-04-20T15:46:51.161Z,3.9
2019-04-20T15:48:50.436Z,4.0
2019-04-20T15:50:51.986Z,4.1
2019-04-20T15:52:55.230Z,4.1
2019-04-20T15:54:50.033Z,3.8
2019-04-20T15:57:01.782Z,4.7
2019-04-20T15:58:50.656Z,4.9
2019-04-20T16:00:53.146Z,4.4
2019-04-20T16:02:49.675Z,4.4
2019-04-20T16:04:52.450Z,3.8
2019-04-20T16:06:50.689Z,4.3
2019-04-20T16:08:50.442Z,3.9
2019-04-20T16:10:51.057Z,3.9
2019-04-20T16:13:09.013Z,3.9
2019-04-20T16:14:49.668Z,4.1
2019-04-20T16:16:50.877Z,4.0
2019-04-20T16:18:50.869Z,4.0
2019-04-20T16:21:05.340Z,4.0
2019-04-20T16:22:50.464Z,3.9
2019-04-20T16:24:49.597Z,4.4
2019-04-20T16:26:49.907Z,4.0
2019-04-20T16:28:50.331Z,4.0
2019-04-20T16:30:51.818Z,4.0
2019-04-20T16:32:50.412Z,4.1
2019-04-20T16:34:50.823Z,4.1
2019-04-20T16:36:56.101Z,4.4
2019-04-20T16:38:51.201Z,4.4
2019-04-20T16:40:50.581Z,4.4
2019-04-20T16:42:50.394Z,4.0
2019-04-20T16:44:51.518Z,4.1
2019-04-20T16:46:50.326Z,3.8
2019-04-20T16:48:49.534Z,3.8
2019-04-20T16:50:50.919Z,3.8
2019-04-20T16:52:51.019Z,4.2
2019-04-20T16:54:50.310Z,3.9
2019-04-20T16:56:50.878Z,3.9
2019-04-20T16:59:00.410Z,3.9
2019-04-20T17:00:51.721Z,3.7
2019-04-20T17:02:50.246Z,3.8
2019-04-20T17:04:54.846Z,4.1
2019-04-20T17:06:49.957Z,3.9
2019-04-20T17:08:51.463Z,3.9
2019-04-20T17:10:49.612Z,3.8
2019-04-20T17:12:49.638Z,3.8
2019-04-20T17:14:51.820Z,3.8
2019-04-20T17:16:51.350Z,3.6
2019-04-20T17:18:51.830Z,3.6
2019-04-20T17:20:50.758Z,3.4
2019-04-20T17:22:50.920Z,3.6
2019-04-20T17:24:51.676Z,3.6
2019-04-20T17:26:50.877Z,4.2
2019-04-20T17:28:55.577Z,4.2
2019-04-20T17:30:50.981Z,3.5
2019-04-20T17:32:49.983Z,3.6
2019-04-20T17:35:13.073Z,3.5
2019-04-20T17:36:50.745Z,3.7
2019-04-20T17:38:58.302Z,3.7
2019-04-20T17:41:12.505Z,3.6
2019-04-20T17:43:08.169Z,3.5
2019-04-20T17:45:06.453Z,3.6
2019-04-20T17:47:21.295Z,3.8
2019-04-20T17:49:08.766Z,3.8
2019-04-20T17:51:22.218Z,3.5
2019-04-20T17:53:13.606Z,3.9
2019-04-20T17:54:49.890Z,4.8
2019-04-20T17:56:49.764Z,4.8
2019-04-20T17:58:50.380Z,4.3
2019-04-20T18:00:56.604Z,4.5
2019-04-20T18:03:10.873Z,3.9
2019-04-20T18:05:22.805Z,4.3
2019-04-20T18:07:17.874Z,4.3
2019-04-20T18:09:11.478Z,4.6
2019-04-20T18:11:07.615Z,5.3
2019-04-20T18:12:57.517Z,6.7
2019-04-20T18:15:22.602Z,6.7
2019-04-20T18:17:13.626Z,6.0
2019-04-20T18:19:06.031Z,5.6
2019-04-20T18:20:50.693Z,4.3
2019-04-20T18:22:56.788Z,4.7
2019-04-20T18:25:18.543Z,5.3
2019-04-20T18:27:23.849Z,5.3
2019-04-20T18:29:13.242Z,5.0
2019-04-20T18:31:03.485Z,4.6
2019-04-20T18:32:49.828Z,4.6
2019-04-20T18:34:59.140Z,4.5
2019-04-20T18:36:52.733Z,4.5
2019-04-20T18:39:04.234Z,4.0
2019-04-20T18:41:04.481Z,4.3
2019-04-20T18:43:04.444Z,4.3
2019-04-20T18:45:15.824Z,4.1
2019-04-20T18:49:13.388Z,4.7
2019-04-20T18:50:52.385Z,4.6
2019-04-20T18:52:49.965Z,5.3
2019-04-20T18:54:55.343Z,5.3
2019-04-20T18:56:53.400Z,4.9
2019-04-20T18:58:51.163Z,4.5
2019-04-20T19:00:54.019Z,4.4
2019-04-20T19:02:57.182Z,4.4
2019-04-20T19:04:50.273Z,4.4
2019-04-20T19:06:51.793Z,4.4
2019-04-20T19:08:53.643Z,4.6
2019-04-20T19:11:03.956Z,4.6
2019-04-20T19:13:02.632Z,6.3
2019-04-20T19:15:01.169Z,6.3
2019-04-20T19:17:10.691Z,5.9
2019-04-20T19:19:09.290Z,5.9
2019-04-20T19:20:50.938Z,5.5
2019-04-20T19:22:50.231Z,5.4
2019-04-20T19:24:50.257Z,5.4
2019-04-20T19:26:59.437Z,5.6
2019-04-20T19:28:57.834Z,5.9
2019-04-20T19:31:11.312Z,6.6
2019-04-20T19:33:08.795Z,6.6
2019-04-20T19:35:08.440Z,6.4
2019-04-20T19:37:13.466Z,5.9
2019-04-20T19:39:09.145Z,5.4
2019-04-20T19:41:13.679Z,5.6
2019-04-20T19:43:11.453Z,5.6
2019-04-20T19:45:26.024Z,5.6
2019-04-20T19:47:20.678Z,5.7
2019-04-20T19:49:11.186Z,6.4
2019-04-20T19:51:23.526Z,6.5
2019-04-20T19:53:16.281Z,6.5
2019-04-20T19:55:14.097Z,6.1
2019-04-20T19:57:13.584Z,5.7
2019-04-20T19:59:09.460Z,6.0
2019-04-20T20:00:55.484Z,6.0
2019-04-20T20:02:50.135Z,6.0
2019-04-20T20:05:01.132Z,6.3
2019-04-20T20:07:03.919Z,6.4
2019-04-20T20:09:03.578Z,6.1
2019-04-20T20:10:50.757Z,6.0
2019-04-20T20:13:00.657Z,6.0
2019-04-20T20:14:51.650Z,6.0
2019-04-20T20:17:17.010Z,5.9
2019-04-20T20:19:05.680Z,6.6
2019-04-20T20:21:15.041Z,6.6
2019-04-20T20:22:56.457Z,6.2
2019-04-20T20:24:52.488Z,6.1
2019-04-20T20:27:02.416Z,6.1
2019-04-20T20:29:08.081Z,6.4
2019-04-20T20:31:07.923Z,6.4
2019-04-20T20:33:16.966Z,6.2
2019-04-20T20:35:08.953Z,6.5
2019-04-20T20:37:03.152Z,5.8
2019-04-20T20:38:59.063Z,6.5
2019-04-20T20:41:08.596Z,6.5
2019-04-20T20:43:10.543Z,6.6
2019-04-20T20:45:08.896Z,6.0
2019-04-20T20:47:21.560Z,6.2
2019-04-20T20:49:15.973Z,5.9
2019-04-20T20:51:13.456Z,5.9
2019-04-20T20:53:12.311Z,6.1
2019-04-20T20:55:06.392Z,6.6
2019-04-20T20:57:05.349Z,6.7
2019-04-20T20:59:07.156Z,6.7
2019-04-20T21:01:09.521Z,6.3
2019-04-20T21:03:02.462Z,6.3
2019-04-20T21:04:49.652Z,6.6
2019-04-20T21:06:51.037Z,6.3
2019-04-20T21:08:56.161Z,6.3
2019-04-20T21:10:52.363Z,6.4
2019-04-20T21:13:01.059Z,6.3
2019-04-20T21:14:51.175Z,6.2
2019-04-20T21:17:08.056Z,6.2
2019-04-20T21:19:17.025Z,7.0
2019-04-20T21:21:10.934Z,7.0
2019-04-20T21:23:15.036Z,6.7
2019-04-20T21:24:52.772Z,6.4
2019-04-20T21:26:50.145Z,6.3
2019-04-20T21:28:50.227Z,6.3
2019-04-20T21:30:53.300Z,6.5
2019-04-20T21:32:57.640Z,6.5
2019-04-20T21:35:01.159Z,6.5
2019-04-20T21:36:55.172Z,6.5
2019-04-20T21:38:51.579Z,6.5
2019-04-20T21:41:03.315Z,6.5
2019-04-20T21:43:03.554Z,11.3
2019-04-20T21:45:04.348Z,7.2
2019-04-20T21:46:56.242Z,7.1
2019-04-20T21:49:09.152Z,7.1
2019-04-20T21:51:13.258Z,6.7
2019-04-20T21:52:59.212Z,7.1
2019-04-20T21:54:51.664Z,6.9
2019-04-20T21:57:03.059Z,6.5
2019-04-20T21:59:00.460Z,6.5
2019-04-20T22:01:11.819Z,6.5
2019-04-20T22:03:00.142Z,7.0
2019-04-20T22:04:51.100Z,6.9
2019-04-20T22:06:50.313Z,6.9
2019-04-20T22:08:59.895Z,6.6
2019-04-20T22:10:50.451Z,6.6
2019-04-20T22:12:59.291Z,6.8
2019-04-20T22:15:05.404Z,6.9
2019-04-20T22:16:56.811Z,6.9
2019-04-20T22:19:15.370Z,6.7
2019-04-20T22:21:09.251Z,6.8
2019-04-20T22:23:13.665Z,6.9
2019-04-20T22:25:13.697Z,6.8
2019-04-20T22:27:06.152Z,6.8
2019-04-20T22:28:50.267Z,7.0
2019-04-20T22:30:50.534Z,6.8
2019-04-20T22:32:53.583Z,6.8
2019-04-20T22:35:04.682Z,7.0
2019-04-20T22:36:52.140Z,7.0
2019-04-20T22:38:59.389Z,7.1
2019-04-20T22:40:49.836Z,7.1
2019-04-20T22:42:57.881Z,7.6
2019-04-20T22:45:05.035Z,7.5
2019-04-20T22:46:50.198Z,7.5
2019-04-20T22:49:17.093Z,7.2
2019-04-20T22:53:17.753Z,7.5
2019-04-20T22:55:15.948Z,7.8
2019-04-20T22:57:09.267Z,7.8
2019-04-20T22:59:06.125Z,7.7
2019-04-20T23:01:02.952Z,7.7
2019-04-20T23:02:52.292Z,7.5
2019-04-20T23:04:50.934Z,7.5
2019-04-20T23:06:52.282Z,7.8
2019-04-20T23:08:56.134Z,7.8
2019-04-20T23:10:51.377Z,7.7
2019-04-20T23:12:56.502Z,7.7
2019-04-20T23:14:50.413Z,7.9
2019-04-20T23:16:55.599Z,7.8
2019-04-20T23:18:50.119Z,7.6
2019-04-20T23:20:54.439Z,7.5
2019-04-20T23:22:53.006Z,7.3
2019-04-20T23:24:51.230Z,7.3
2019-04-20T23:26:50.968Z,7.2
2019-04-20T23:28:57.388Z,7.8
2019-04-20T23:31:04.968Z,7.4
2019-04-20T23:32:51.836Z,8.2
2019-04-20T23:35:04.765Z,8.2
2019-04-20T23:36:51.005Z,7.7
2019-04-20T23:38:58.023Z,6.9
2019-04-20T23:40:50.164Z,6.9
2019-04-20T23:42:51.826Z,7.5
2019-04-20T23:44:57.787Z,7.0
2019-04-20T23:47:04.833Z,7.0
2019-04-20T23:48:50.460Z,7.6
2019-04-20T23:51:14.538Z,7.6
2019-04-20T23:55:04.011Z,7.4
2019-04-20T23:56:50.230Z,7.2
2019-04-20T23:58:56.779Z,7.2
